Time;durP1;ratioP1;P1;durP2;ratioP2;P2;SDS_P1;SDS_P2;PMS_P1;PMS_P2;Temp;Humidity;BMP_temperature;BMP_pressure;BME280_temperature;BME280_humidity;BME280_pressure;Samples;Min_cycle;Max_cycle;Signal;HPM_P1;HPM_P2
2022/10/24 00:01:12;;;;;;;6.15;1.63;;;17.70;99.90;;;;;;4859823;29;20252;-85
2022/10/24 00:03:38;;;;;;;8.20;1.75;;;17.70;99.90;;;;;;4864894;29;20241;-85
2022/10/24 00:06:06;;;;;;;6.97;1.52;;;17.70;99.90;;;;;;4859614;29;20653;-85
2022/10/24 00:08:33;;;;;;;4.97;1.63;;;17.60;99.90;;;;;;4865408;29;20180;-85
2022/10/24 00:10:59;;;;;;;9.05;1.80;;;17.60;99.90;;;;;;4878153;29;20313;-86
2022/10/24 00:13:25;;;;;;;3.25;1.58;;;17.60;99.90;;;;;;4862632;29;20291;-85
2022/10/24 00:15:51;;;;;;;6.47;1.80;;;17.60;99.90;;;;;;4878266;29;20188;-85
2022/10/24 00:18:17;;;;;;;5.38;1.60;;;17.60;99.90;;;;;;4862488;29;20191;-85
2022/10/24 00:20:43;;;;;;;5.20;1.50;;;17.60;99.90;;;;;;4862634;29;20227;-85
2022/10/24 00:23:12;;;;;;;6.05;1.52;;;17.60;99.90;;;;;;4878197;29;20223;-85
2022/10/24 00:25:38;;;;;;;8.63;1.88;;;17.60;99.90;;;;;;4877720;29;20191;-85
2022/10/24 00:28:04;;;;;;;6.65;2.00;;;17.60;99.90;;;;;;4862456;29;20319;-85
2022/10/24 00:30:30;;;;;;;8.85;2.00;;;17.50;99.90;;;;;;4857985;29;20284;-86
2022/10/24 00:32:57;;;;;;;4.75;1.60;;;17.50;99.90;;;;;;4859232;29;20204;-85
2022/10/24 00:35:22;;;;;;;8.43;2.00;;;17.50;99.90;;;;;;4859619;29;20200;-86
2022/10/24 00:37:48;;;;;;;6.00;1.63;;;17.50;99.90;;;;;;4863471;29;20191;-85
2022/10/24 00:40:18;;;;;;;4.13;1.73;;;17.40;99.90;;;;;;4859488;29;20188;-85
2022/10/24 00:42:45;;;;;;;6.28;1.73;;;17.40;99.90;;;;;;4859154;29;20208;-85
2022/10/24 00:45:35;;;;;;;4.72;2.00;;;17.40;99.90;;;;;;4859367;29;20284;-86
2022/10/24 00:48:02;;;;;;;5.55;1.80;;;17.30;99.90;;;;;;4859344;29;20177;-85
2022/10/24 00:50:28;;;;;;;5.40;1.80;;;17.20;99.90;;;;;;4874626;29;20188;-85
2022/10/24 00:52:54;;;;;;;4.38;1.30;;;17.20;99.90;;;;;;4862500;29;20204;-85
2022/10/24 00:55:20;;;;;;;5.55;1.70;;;17.20;99.90;;;;;;4879783;29;20195;-85
2022/10/24 00:57:52;;;;;;;6.00;1.70;;;17.10;99.90;;;;;;4873574;29;20268;-85
2022/10/24 01:00:21;;;;;;;5.50;2.00;;;17.10;99.90;;;;;;4862927;29;20693;-85
2022/10/24 01:02:47;;;;;;;7.57;1.70;;;17.10;99.90;;;;;;4862893;29;20208;-85
2022/10/24 01:05:15;;;;;;;6.35;1.67;;;17.10;99.90;;;;;;4862736;29;20217;-86
2022/10/24 01:07:59;;;;;;;7.38;1.90;;;17.00;99.90;;;;;;4862457;29;20187;-85
2022/10/24 01:10:43;;;;;;;8.05;1.77;;;17.10;99.90;;;;;;4862896;29;20177;-85
2022/10/24 01:13:37;;;;;;;5.57;2.17;;;17.00;99.90;;;;;;4862649;29;20205;-85
2022/10/24 01:16:33;;;;;;;6.82;1.83;;;17.00;99.90;;;;;;4862792;29;20176;-85
2022/10/24 01:19:09;;;;;;;8.02;2.53;;;16.90;99.90;;;;;;4862539;29;20200;-85
2022/10/24 01:21:42;;;;;;;6.32;1.80;;;16.90;99.90;;;;;;4862664;29;20180;-85
2022/10/24 01:24:08;;;;;;;5.93;1.83;;;16.90;99.90;;;;;;4862368;29;20231;-85
2022/10/24 01:26:53;;;;;;;5.60;1.80;;;16.90;99.90;;;;;;4862326;29;20220;-85
2022/10/24 01:29:22;;;;;;;5.50;2.13;;;16.90;99.90;;;;;;4862345;29;20184;-85
2022/10/24 01:31:51;;;;;;;8.45;1.90;;;16.90;99.90;;;;;;4862436;29;20188;-85
2022/10/24 01:34:27;;;;;;;5.03;1.58;;;16.90;99.90;;;;;;4862194;29;20216;-85
2022/10/24 01:37:19;;;;;;;3.67;1.65;;;16.90;99.90;;;;;;4859225;29;20189;-85
2022/10/24 01:39:54;;;;;;;8.70;2.35;;;16.90;99.90;;;;;;4860213;29;20279;-85
2022/10/24 01:42:23;;;;;;;6.13;2.00;;;16.80;99.90;;;;;;4862043;29;20212;-85
2022/10/24 01:44:53;;;;;;;11.35;2.33;;;16.80;99.90;;;;;;4861936;29;20215;-85
2022/10/24 01:47:33;;;;;;;8.23;2.13;;;16.90;99.90;;;;;;4868842;29;20224;-85
2022/10/24 01:50:07;;;;;;;9.15;2.35;;;16.90;99.90;;;;;;4865043;29;20263;-85
2022/10/24 01:52:38;;;;;;;6.40;2.40;;;17.10;99.90;;;;;;4858945;29;20200;-86
2022/10/24 01:55:05;;;;;;;10.35;2.65;;;17.20;99.90;;;;;;4861623;29;20184;-85
2022/10/24 01:57:33;;;;;;;6.45;2.40;;;17.40;99.90;;;;;;4863245;29;20196;-85
2022/10/24 01:59:59;;;;;;;10.85;2.95;;;17.50;99.90;;;;;;4862709;29;20322;-85
2022/10/24 02:02:30;;;;;;;11.82;2.80;;;17.50;99.90;;;;;;4861560;29;20201;-86
2022/10/24 02:05:11;;;;;;;7.78;2.85;;;17.60;99.90;;;;;;4877291;29;20224;-85
2022/10/24 02:07:41;;;;;;;7.63;2.88;;;17.60;99.90;;;;;;4861198;29;20191;-85
2022/10/24 02:10:13;;;;;;;9.90;2.72;;;17.60;99.90;;;;;;4877140;29;20181;-85
2022/10/24 02:12:45;;;;;;;9.00;3.20;;;17.50;99.90;;;;;;4861784;29;20231;-85
2022/10/24 02:15:16;;;;;;;10.45;3.25;;;17.40;99.90;;;;;;4861580;29;20635;-85
2022/10/24 02:17:42;;;;;;;11.05;2.72;;;17.30;99.90;;;;;;4861226;29;20188;-85
2022/10/24 02:20:09;;;;;;;10.10;2.58;;;17.20;99.90;;;;;;4861536;29;20188;-86
2022/10/24 02:23:05;;;;;;;10.85;2.88;;;17.10;99.90;;;;;;4861572;29;20291;-85
2022/10/24 02:25:43;;;;;;;6.07;2.53;;;17.10;99.90;;;;;;4846139;29;20276;-85
2022/10/24 02:28:21;;;;;;;7.80;2.45;;;17.00;99.90;;;;;;4861284;29;20206;-85
2022/10/24 02:30:54;;;;;;;9.07;2.45;;;17.00;99.90;;;;;;4861320;29;20208;-85
2022/10/24 02:33:21;;;;;;;8.90;2.90;;;16.90;99.90;;;;;;4861509;29;20508;-85
2022/10/24 02:35:51;;;;;;;6.25;2.53;;;16.90;99.90;;;;;;4861271;29;20241;-85
2022/10/24 02:38:20;;;;;;;8.35;2.45;;;16.80;99.90;;;;;;4861015;29;20185;-85
2022/10/24 02:40:48;;;;;;;10.00;3.10;;;16.80;99.90;;;;;;4861195;29;20191;-85
2022/10/24 02:43:16;;;;;;;9.27;2.55;;;16.70;99.90;;;;;;4869010;29;20208;-85
2022/10/24 02:45:43;;;;;;;7.32;2.72;;;16.70;99.90;;;;;;4864071;29;20180;-85
2022/10/24 02:48:13;;;;;;;8.20;2.22;;;16.70;99.90;;;;;;4850067;29;20237;-85
2022/10/24 02:50:41;;;;;;;7.35;2.15;;;16.70;99.90;;;;;;4861304;29;20185;-86
2022/10/24 02:53:17;;;;;;;9.52;2.47;;;16.70;99.90;;;;;;4871481;29;20228;-85
2022/10/24 02:55:43;;;;;;;7.50;2.63;;;16.70;99.90;;;;;;4864282;29;20180;-85
2022/10/24 02:58:10;;;;;;;8.73;2.28;;;16.70;99.90;;;;;;4879322;29;20190;-85
2022/10/24 03:00:36;;;;;;;13.40;2.70;;;16.70;99.90;;;;;;4857441;29;20211;-85
2022/10/24 03:03:02;;;;;;;8.73;2.38;;;16.70;99.90;;;;;;4860308;29;20228;-85
2022/10/24 03:05:28;;;;;;;7.63;2.70;;;16.70;99.90;;;;;;4860718;29;20208;-85
2022/10/24 03:07:53;;;;;;;9.68;2.70;;;16.70;99.90;;;;;;4859732;29;20189;-85
2022/10/24 03:10:19;;;;;;;8.55;2.72;;;16.70;99.90;;;;;;4842087;29;20182;-86
2022/10/24 03:12:45;;;;;;;5.72;2.33;;;16.70;99.90;;;;;;4848611;29;20256;-86
2022/10/24 03:15:11;;;;;;;7.88;2.53;;;16.60;99.90;;;;;;4860437;29;20189;-85
2022/10/24 03:17:37;;;;;;;7.22;2.85;;;16.60;99.90;;;;;;4860385;29;20193;-86
2022/10/24 03:20:03;;;;;;;9.98;2.95;;;16.60;99.90;;;;;;4860388;29;20249;-85
2022/10/24 03:22:29;;;;;;;12.50;2.53;;;16.60;99.90;;;;;;4860260;29;20295;-85
2022/10/24 03:24:55;;;;;;;8.60;2.47;;;16.60;99.90;;;;;;4859676;29;20291;-86
2022/10/24 03:27:21;;;;;;;9.10;2.58;;;16.60;99.90;;;;;;4860121;29;20244;-85
2022/10/24 03:29:47;;;;;;;8.23;2.42;;;16.70;99.90;;;;;;4875618;29;20180;-85
2022/10/24 03:32:13;;;;;;;10.85;2.85;;;16.70;99.90;;;;;;4863450;29;20211;-85
2022/10/24 03:34:39;;;;;;;8.40;2.63;;;16.70;99.90;;;;;;4863968;29;20286;-86
2022/10/24 03:37:05;;;;;;;10.10;2.80;;;16.60;99.90;;;;;;4863068;29;20305;-85
2022/10/24 03:39:31;;;;;;;7.60;2.53;;;16.50;99.90;;;;;;4850064;29;20193;-85
2022/10/24 03:41:57;;;;;;;6.70;2.40;;;16.40;99.90;;;;;;4865559;29;20214;-85
2022/10/24 03:44:23;;;;;;;8.38;2.67;;;16.30;99.90;;;;;;4863548;29;20212;-85
2022/10/24 03:46:49;;;;;;;7.00;2.72;;;16.20;99.90;;;;;;4847430;29;20228;-86
2022/10/24 03:49:14;;;;;;;7.20;2.35;;;16.10;99.90;;;;;;4859194;29;20208;-87
2022/10/24 03:51:40;;;;;;;8.37;2.70;;;15.90;99.90;;;;;;4844108;29;20266;-87
2022/10/24 03:54:06;;;;;;;9.67;3.03;;;15.90;99.90;;;;;;4859333;29;20236;-87
2022/10/24 03:56:32;;;;;;;9.38;2.60;;;15.80;99.90;;;;;;4859669;29;20221;-87
2022/10/24 03:58:58;;;;;;;9.73;3.27;;;15.70;99.90;;;;;;4873375;29;20245;-87
2022/10/24 04:01:24;;;;;;;7.87;2.43;;;15.70;99.90;;;;;;4877785;29;20189;-86
2022/10/24 04:03:50;;;;;;;9.07;3.23;;;15.70;99.90;;;;;;4863304;29;20222;-87
2022/10/24 04:06:16;;;;;;;12.00;3.33;;;15.70;99.90;;;;;;4877057;29;20188;-86
2022/10/24 04:08:42;;;;;;;7.47;2.57;;;15.70;99.90;;;;;;4859858;29;20180;-86
2022/10/24 04:11:09;;;;;;;8.63;2.47;;;15.70;99.90;;;;;;4844805;29;20209;-86
2022/10/24 04:13:35;;;;;;;6.17;2.20;;;15.70;99.90;;;;;;4844286;29;20212;-86
2022/10/24 04:16:01;;;;;;;8.93;2.23;;;15.70;99.90;;;;;;4859825;29;20199;-86
2022/10/24 04:18:26;;;;;;;7.27;2.60;;;15.70;99.90;;;;;;4859496;29;20204;-86
2022/10/24 04:20:52;;;;;;;6.63;2.90;;;15.80;99.90;;;;;;4859643;29;20192;-86
2022/10/24 04:23:18;;;;;;;7.70;2.30;;;15.80;99.90;;;;;;4860482;29;20205;-88
2022/10/24 04:25:48;;;;;;;7.97;2.43;;;15.80;99.90;;;;;;4859485;29;20195;-86
2022/10/24 04:28:20;;;;;;;9.10;2.20;;;15.90;99.90;;;;;;4858921;29;20184;-86
2022/10/24 04:30:54;;;;;;;6.13;2.67;;;15.90;99.90;;;;;;4864537;29;20306;-86
2022/10/24 04:33:20;;;;;;;7.27;2.37;;;16.00;99.90;;;;;;4865591;29;20209;-86
2022/10/24 04:35:47;;;;;;;5.77;2.13;;;16.10;99.90;;;;;;4866028;29;20204;-86
2022/10/24 04:38:13;;;;;;;5.77;1.83;;;16.10;99.90;;;;;;4880815;29;20183;-86
2022/10/24 04:40:39;;;;;;;7.07;2.37;;;16.10;99.90;;;;;;4865894;29;20177;-86
2022/10/24 04:43:05;;;;;;;9.20;2.60;;;16.20;99.90;;;;;;4865729;29;20208;-86
2022/10/24 04:45:31;;;;;;;9.50;2.97;;;16.20;99.90;;;;;;4865413;29;20215;-86
2022/10/24 04:47:56;;;;;;;7.30;2.10;;;16.40;99.90;;;;;;4865355;29;20275;-86
2022/10/24 04:50:22;;;;;;;7.80;2.43;;;16.50;99.90;;;;;;4867327;29;20184;-86
2022/10/24 04:52:48;;;;;;;6.50;2.07;;;16.70;99.90;;;;;;4865705;29;20220;-86
2022/10/24 04:55:14;;;;;;;8.20;1.90;;;16.90;99.90;;;;;;4865462;29;20191;-86
2022/10/24 04:57:40;;;;;;;6.15;2.15;;;17.00;99.90;;;;;;4865303;29;20191;-87
2022/10/24 05:00:06;;;;;;;5.22;1.77;;;17.00;99.90;;;;;;4865360;29;20207;-86
2022/10/24 05:02:32;;;;;;;6.43;2.17;;;17.10;99.90;;;;;;4865507;29;20220;-87
2022/10/24 05:04:58;;;;;;;5.22;2.10;;;17.00;99.90;;;;;;4865015;29;20251;-87
2022/10/24 05:07:38;;;;;;;5.88;2.20;;;17.00;99.90;;;;;;4864995;29;20185;-87
2022/10/24 05:10:04;;;;;;;6.32;2.40;;;16.90;99.90;;;;;;4865496;29;20184;-88
2022/10/24 05:12:30;;;;;;;7.25;2.08;;;16.90;99.90;;;;;;4865512;29;20208;-87
2022/10/24 05:14:56;;;;;;;8.02;2.20;;;16.90;99.90;;;;;;4865477;29;20192;-87
2022/10/24 05:17:22;;;;;;;4.22;1.75;;;16.80;99.90;;;;;;4865279;29;20177;-87
2022/10/24 05:19:48;;;;;;;7.35;2.05;;;16.70;99.90;;;;;;4865318;29;20185;-87
2022/10/24 05:22:14;;;;;;;6.53;1.92;;;16.70;99.90;;;;;;4865515;29;20211;-88
2022/10/24 05:24:40;;;;;;;4.30;1.80;;;16.70;99.90;;;;;;4865218;29;20220;-87
2022/10/24 05:27:06;;;;;;;3.55;1.73;;;16.60;99.90;;;;;;4865534;29;20184;-87
2022/10/24 05:29:32;;;;;;;4.88;1.83;;;16.60;99.90;;;;;;4865426;29;20192;-87
2022/10/24 05:31:57;;;;;;;6.57;2.22;;;16.50;99.90;;;;;;4865223;29;20195;-87
2022/10/24 05:34:23;;;;;;;8.30;1.75;;;16.50;99.90;;;;;;4865306;29;20620;-86
2022/10/24 05:36:49;;;;;;;8.43;2.00;;;16.50;99.90;;;;;;4865252;29;20237;-87
2022/10/24 05:39:15;;;;;;;5.63;1.60;;;16.50;99.90;;;;;;4865059;29;20188;-87
2022/10/24 05:41:41;;;;;;;4.75;1.45;;;16.50;99.90;;;;;;4862207;29;20200;-87
2022/10/24 05:44:08;;;;;;;4.57;1.63;;;16.50;99.90;;;;;;4877296;29;20207;-87
2022/10/24 05:46:34;;;;;;;6.43;1.85;;;16.40;99.90;;;;;;4862140;29;20180;-87
2022/10/24 05:48:59;;;;;;;6.60;2.07;;;16.40;99.90;;;;;;4860769;29;20191;-87
2022/10/24 05:51:26;;;;;;;6.57;1.63;;;16.30;99.90;;;;;;4862247;29;20217;-87
2022/10/24 05:53:52;;;;;;;7.38;2.28;;;16.20;99.90;;;;;;4870981;29;20212;-87
2022/10/24 05:56:17;;;;;;;4.23;1.67;;;16.20;99.90;;;;;;4865611;29;20187;-87
2022/10/24 05:58:43;;;;;;;6.38;1.80;;;16.20;99.90;;;;;;4869504;29;20186;-87
2022/10/24 06:01:09;;;;;;;5.77;1.90;;;16.20;99.90;;;;;;4856418;29;20184;-87
2022/10/24 06:03:35;;;;;;;7.15;2.10;;;16.20;99.90;;;;;;4850266;29;20224;-87
2022/10/24 06:06:06;;;;;;;7.23;2.20;;;16.20;99.90;;;;;;4861434;29;20414;-87
2022/10/24 06:08:36;;;;;;;4.67;1.97;;;16.20;99.90;;;;;;4861255;29;20189;-87
2022/10/24 06:11:02;;;;;;;5.77;2.07;;;16.10;99.90;;;;;;4861623;29;20184;-87
2022/10/24 06:13:30;;;;;;;6.03;2.42;;;16.10;99.90;;;;;;4860966;29;20201;-87
2022/10/24 06:15:56;;;;;;;4.80;2.27;;;16.10;99.90;;;;;;4861344;29;20181;-87
2022/10/24 06:18:22;;;;;;;4.43;2.15;;;16.00;99.90;;;;;;4861353;29;20184;-87
2022/10/24 06:20:48;;;;;;;4.47;2.30;;;16.00;99.90;;;;;;4861289;29;20172;-87
2022/10/24 06:23:14;;;;;;;7.68;2.33;;;16.00;99.90;;;;;;4861002;29;20215;-87
2022/10/24 06:25:40;;;;;;;5.20;2.27;;;15.90;99.90;;;;;;4861205;29;20267;-87
2022/10/24 06:28:08;;;;;;;6.28;2.00;;;15.90;99.90;;;;;;4860855;29;20189;-86
2022/10/24 06:30:35;;;;;;;5.90;2.40;;;15.80;99.90;;;;;;4861206;29;20634;-86
2022/10/24 06:33:02;;;;;;;6.17;2.43;;;15.80;99.90;;;;;;4860582;29;20217;-87
2022/10/24 06:35:28;;;;;;;4.33;2.07;;;15.80;99.90;;;;;;4860762;29;20665;-87
2022/10/24 06:37:54;;;;;;;9.67;2.13;;;15.70;99.90;;;;;;4860995;29;20191;-87
2022/10/24 06:40:20;;;;;;;3.10;2.00;;;15.60;99.90;;;;;;4860875;29;20201;-86
2022/10/24 06:42:46;;;;;;;6.87;2.60;;;15.60;99.90;;;;;;4860680;29;20216;-86
2022/10/24 06:45:12;;;;;;;8.90;2.27;;;15.60;99.90;;;;;;4860902;29;20243;-86
2022/10/24 06:47:38;;;;;;;7.97;2.30;;;15.60;99.90;;;;;;4860371;29;20185;-86
2022/10/24 06:50:05;;;;;;;5.47;2.10;;;15.50;99.90;;;;;;4861037;29;20177;-87
2022/10/24 06:52:31;;;;;;;6.30;2.30;;;15.50;99.90;;;;;;4844885;29;20238;-87
2022/10/24 06:54:57;;;;;;;7.60;2.37;;;15.50;99.90;;;;;;4859926;29;20309;-87
2022/10/24 06:57:22;;;;;;;8.57;2.73;;;15.50;99.90;;;;;;4860529;29;20185;-87
2022/10/24 06:59:48;;;;;;;7.57;2.50;;;15.50;99.90;;;;;;4859083;29;20192;-87
2022/10/24 07:02:15;;;;;;;7.60;2.63;;;15.50;99.90;;;;;;4844815;29;20299;-87
2022/10/24 07:04:41;;;;;;;4.00;2.10;;;15.50;99.90;;;;;;4844929;29;20213;-87
2022/10/24 07:07:12;;;;;;;7.03;2.30;;;15.50;99.90;;;;;;4844488;29;20276;-87
2022/10/24 07:09:38;;;;;;;5.67;2.40;;;15.50;99.90;;;;;;4844935;29;20199;-87
2022/10/24 07:12:04;;;;;;;5.30;2.50;;;15.50;99.90;;;;;;4860330;29;20189;-87
2022/10/24 07:14:33;;;;;;;7.20;2.50;;;15.50;99.90;;;;;;4860004;29;20188;-87
2022/10/24 07:16:59;;;;;;;7.10;2.33;;;15.50;99.90;;;;;;4860542;29;20185;-87
2022/10/24 07:19:25;;;;;;;7.27;2.50;;;15.50;99.90;;;;;;4860154;29;20185;-87
2022/10/24 07:21:51;;;;;;;5.97;2.70;;;15.50;99.90;;;;;;4860166;29;20292;-87
2022/10/24 07:24:16;;;;;;;5.87;2.83;;;15.40;99.90;;;;;;4860120;29;20204;-87
2022/10/24 07:26:42;;;;;;;6.47;3.40;;;15.40;99.90;;;;;;4859755;29;20195;-88
2022/10/24 07:29:08;;;;;;;8.63;4.40;;;15.40;99.90;;;;;;4861059;29;20268;-87
2022/10/24 07:31:35;;;;;;;32.97;16.37;;;15.40;99.90;;;;;;4859974;29;20272;-87
2022/10/24 07:34:04;;;;;;;20.43;11.70;;;15.40;99.90;;;;;;4844348;29;20212;-87
2022/10/24 07:36:30;;;;;;;19.17;8.37;;;15.40;99.90;;;;;;4844511;29;20189;-88
2022/10/24 07:38:57;;;;;;;13.33;6.70;;;15.40;99.90;;;;;;4859703;29;20185;-87
2022/10/24 07:41:43;;;;;;;14.23;7.20;;;15.40;99.90;;;;;;4859596;29;20197;-87
2022/10/24 07:44:10;;;;;;;15.63;8.07;;;15.40;99.90;;;;;;4860795;29;20229;-87
2022/10/24 07:46:36;;;;;;;13.77;7.97;;;15.40;99.90;;;;;;4859814;29;20185;-87
2022/10/24 07:49:02;;;;;;;17.57;8.03;;;15.40;99.90;;;;;;4859527;29;20188;-87
2022/10/24 07:51:36;;;;;;;9.93;4.17;;;15.40;99.90;;;;;;4859579;29;20192;-87
2022/10/24 07:54:02;;;;;;;6.83;2.40;;;15.40;99.90;;;;;;4859546;29;20255;-88
2022/10/24 07:56:28;;;;;;;6.17;2.33;;;15.40;99.90;;;;;;4859651;29;20259;-87
2022/10/24 07:58:55;;;;;;;7.20;2.53;;;15.40;99.90;;;;;;4859379;29;20241;-87
2022/10/24 08:01:23;;;;;;;6.67;2.10;;;15.40;99.90;;;;;;4859529;29;20199;-87
2022/10/24 08:03:50;;;;;;;6.43;2.40;;;15.40;99.90;;;;;;4858363;29;20219;-87
2022/10/24 08:06:18;;;;;;;5.87;2.53;;;15.40;99.90;;;;;;4859221;29;20196;-87
2022/10/24 08:08:45;;;;;;;5.68;2.38;;;15.40;99.90;;;;;;4859227;29;20237;-87
2022/10/24 08:11:20;;;;;;;6.10;2.40;;;15.40;99.90;;;;;;4859479;29;20181;-87
2022/10/24 08:13:47;;;;;;;5.30;2.37;;;15.40;99.90;;;;;;4859521;29;20204;-87
2022/10/24 08:16:15;;;;;;;8.17;2.37;;;15.40;99.90;;;;;;4859288;29;20195;-87
2022/10/24 08:18:42;;;;;;;7.50;2.30;;;15.50;99.90;;;;;;4859138;29;20184;-87
2022/10/24 08:21:11;;;;;;;5.60;2.30;;;15.50;99.90;;;;;;4859414;29;20214;-87
2022/10/24 08:23:39;;;;;;;4.97;2.00;;;15.50;99.90;;;;;;4859432;29;20212;-87
2022/10/24 08:26:10;;;;;;;4.67;2.20;;;15.50;99.90;;;;;;4858981;29;20188;-87
2022/10/24 08:28:36;;;;;;;5.67;2.23;;;15.50;99.90;;;;;;4859133;29;20177;-87
2022/10/24 08:31:05;;;;;;;5.47;2.30;;;15.60;99.90;;;;;;4859381;29;20216;-87
2022/10/24 08:33:32;;;;;;;7.13;2.80;;;15.60;99.90;;;;;;4858883;29;20241;-87
2022/10/24 08:36:04;;;;;;;5.50;2.50;;;15.60;99.90;;;;;;4859155;29;20260;-87
2022/10/24 08:38:30;;;;;;;7.17;2.63;;;15.60;99.90;;;;;;4853200;29;20204;-88
2022/10/24 08:40:57;;;;;;;9.20;2.57;;;15.60;99.90;;;;;;4825735;29;20189;-88
2022/10/24 08:43:24;;;;;;;6.53;2.50;;;15.60;99.90;;;;;;4825324;29;20245;-87
2022/10/24 08:46:26;;;;;;;6.27;2.80;;;15.60;99.90;;;;;;4825977;29;20268;-87
2022/10/24 08:49:01;;;;;;;5.77;3.07;;;15.60;99.90;;;;;;4825612;29;20215;-87
2022/10/24 08:51:39;;;;;;;8.73;3.23;;;15.60;99.90;;;;;;4825700;29;20184;-87
2022/10/24 08:54:13;;;;;;;8.60;3.27;;;15.60;99.90;;;;;;4825567;29;20205;-87
2022/10/24 08:56:39;;;;;;;6.23;2.90;;;15.60;99.90;;;;;;4825233;29;20211;-88
2022/10/24 08:59:10;;;;;;;8.40;2.83;;;15.60;99.90;;;;;;4825626;29;20185;-87
2022/10/24 09:02:11;;;;;;;8.03;2.77;;;15.60;99.90;;;;;;4825754;29;20181;-87
2022/10/24 09:04:58;;;;;;;7.47;2.37;;;15.50;99.90;;;;;;4828593;29;20224;-87
2022/10/24 09:07:24;;;;;;;6.47;2.70;;;15.50;99.90;;;;;;4825140;29;20249;-87
2022/10/24 09:10:04;;;;;;;4.93;2.33;;;15.60;99.90;;;;;;4825382;29;20190;-87
2022/10/24 09:12:32;;;;;;;9.03;2.33;;;15.60;99.90;;;;;;4855596;29;20201;-87
2022/10/24 09:14:59;;;;;;;7.80;2.30;;;15.60;99.90;;;;;;4855961;29;20212;-88
2022/10/24 09:17:34;;;;;;;7.82;1.98;;;15.60;99.90;;;;;;4859001;29;20253;-87
2022/10/24 09:20:27;;;;;;;6.65;1.90;;;15.60;99.90;;;;;;4859216;29;20203;-87
2022/10/24 09:22:57;;;;;;;4.73;2.37;;;15.60;99.90;;;;;;4859006;29;20209;-87
2022/10/24 09:25:30;;;;;;;4.93;2.30;;;15.60;99.90;;;;;;4858942;29;20219;-88
2022/10/24 09:28:00;;;;;;;4.95;2.05;;;15.70;99.90;;;;;;4858964;29;20260;-87
2022/10/24 09:30:36;;;;;;;4.00;2.27;;;15.60;99.90;;;;;;4858746;29;20184;-87
2022/10/24 09:33:13;;;;;;;9.63;2.80;;;15.60;99.90;;;;;;4858902;29;20220;-87
2022/10/24 09:35:39;;;;;;;5.95;2.20;;;15.60;99.90;;;;;;4843522;29;20208;-87
2022/10/24 09:38:26;;;;;;;6.00;2.53;;;15.60;99.90;;;;;;4845940;29;20188;-87
2022/10/24 09:40:55;;;;;;;5.93;2.57;;;15.60;99.90;;;;;;4862414;29;20193;-87
2022/10/24 09:43:30;;;;;;;8.03;3.07;;;15.60;99.90;;;;;;4867692;29;20216;-88
2022/10/24 09:46:01;;;;;;;4.95;2.80;;;15.70;99.90;;;;;;4878934;29;20197;-88
2022/10/24 09:48:34;;;;;;;7.43;2.67;;;15.70;99.90;;;;;;4864827;29;20295;-87
2022/10/24 09:51:01;;;;;;;6.70;2.30;;;15.60;99.90;;;;;;4863884;29;20170;-86
2022/10/24 09:53:34;;;;;;;6.40;2.33;;;15.60;99.90;;;;;;4861359;29;20211;-86
2022/10/24 09:56:16;;;;;;;7.83;2.63;;;15.60;99.90;;;;;;4861196;29;20220;-86
2022/10/24 09:58:42;;;;;;;8.87;2.40;;;15.60;99.90;;;;;;4861735;29;20184;-86
2022/10/24 10:01:21;;;;;;;7.30;2.50;;;15.60;99.90;;;;;;4862197;29;20264;-86
2022/10/24 10:04:03;;;;;;;6.23;2.00;;;15.70;99.90;;;;;;4861115;29;20270;-87
2022/10/24 10:06:31;;;;;;;5.33;2.00;;;15.70;99.90;;;;;;4860499;29;20188;-86
2022/10/24 10:09:12;;;;;;;5.80;1.70;;;15.70;99.90;;;;;;4861474;29;20192;-86
2022/10/24 10:11:53;;;;;;;3.40;1.67;;;15.70;99.90;;;;;;4861414;29;20176;-86
2022/10/24 10:14:23;;;;;;;3.53;1.63;;;15.70;99.90;;;;;;4862202;29;20189;-86
2022/10/24 10:17:18;;;;;;;5.30;1.70;;;15.70;99.90;;;;;;4861603;29;20217;-86
2022/10/24 10:19:46;;;;;;;4.57;1.57;;;15.70;99.90;;;;;;4861941;29;20278;-86
2022/10/24 10:22:30;;;;;;;3.90;1.67;;;15.70;99.90;;;;;;4861990;29;20216;-86
2022/10/24 10:24:58;;;;;;;4.37;1.60;;;15.70;99.90;;;;;;4864082;29;20257;-86
2022/10/24 10:27:33;;;;;;;3.80;1.63;;;15.70;99.90;;;;;;4861607;29;20199;-86
2022/10/24 10:30:08;;;;;;;5.93;1.53;;;15.70;99.90;;;;;;4864146;29;20214;-83
2022/10/24 10:32:48;;;;;;;5.17;1.47;;;15.70;99.90;;;;;;4879379;29;20263;-86
2022/10/24 10:35:20;;;;;;;2.77;1.60;;;15.70;99.90;;;;;;4863715;29;20251;-86
2022/10/24 10:37:58;;;;;;;3.70;1.23;;;15.80;99.90;;;;;;4879412;29;20184;-86
2022/10/24 10:40:38;;;;;;;4.20;1.87;;;15.80;99.90;;;;;;4863948;29;20267;-86
2022/10/24 10:44:01;;;;;;;3.83;1.90;;;15.80;99.90;;;;;;4850340;29;20254;-86
2022/10/24 10:46:41;;;;;;;5.83;1.50;;;15.90;99.90;;;;;;4844209;29;20847;-86
2022/10/24 10:49:34;;;;;;;5.70;1.60;;;15.80;99.90;;;;;;4826043;29;20192;-86
2022/10/24 10:52:06;;;;;;;5.60;1.67;;;15.90;99.90;;;;;;4839932;29;20206;-86
2022/10/24 10:55:00;;;;;;;5.90;1.60;;;15.90;99.90;;;;;;4842465;29;20187;-86
2022/10/24 10:57:52;;;;;;;2.87;1.60;;;15.90;99.90;;;;;;4841754;29;20166;-86
2022/10/24 11:00:33;;;;;;;4.37;1.53;;;15.90;99.90;;;;;;4842229;29;20190;-86
2022/10/24 11:03:30;;;;;;;2.20;1.20;;;15.90;99.90;;;;;;4842118;29;20209;-86
2022/10/24 11:05:59;;;;;;;2.10;1.40;;;15.90;99.90;;;;;;4839984;29;20202;-86
2022/10/24 11:08:53;;;;;;;3.67;1.57;;;15.90;99.90;;;;;;4851548;29;20188;-86
2022/10/24 11:11:40;;;;;;;1.90;1.50;;;15.90;99.90;;;;;;4860437;29;20181;-86
2022/10/24 11:14:30;;;;;;;5.40;1.27;;;15.90;99.90;;;;;;4859849;29;20243;-86
2022/10/24 11:17:22;;;;;;;6.37;1.40;;;15.90;99.90;;;;;;4860411;29;20185;-86
2022/10/24 11:20:15;;;;;;;3.73;1.50;;;15.90;99.90;;;;;;4841860;29;20208;-86
2022/10/24 11:22:52;;;;;;;2.67;1.00;;;15.80;99.90;;;;;;4856499;29;20212;-85
2022/10/24 11:25:27;;;;;;;2.80;1.30;;;15.90;99.90;;;;;;4859912;29;20213;-86
2022/10/24 11:28:11;;;;;;;2.20;1.17;;;15.90;99.90;;;;;;4871963;29;20190;-86
2022/10/24 11:31:00;;;;;;;4.07;1.23;;;15.90;99.90;;;;;;4863448;29;20191;-86
2022/10/24 11:33:43;;;;;;;4.63;1.40;;;15.90;99.90;;;;;;4878427;29;20256;-86
2022/10/24 11:36:24;;;;;;;3.07;1.30;;;15.80;99.90;;;;;;4860070;29;20197;-86
2022/10/24 11:38:59;;;;;;;3.60;1.40;;;15.80;99.90;;;;;;4853788;29;20185;-86
2022/10/24 11:41:58;;;;;;;2.47;1.10;;;15.90;99.90;;;;;;4860920;29;20176;-86
2022/10/24 11:44:57;;;;;;;2.20;1.50;;;15.90;99.90;;;;;;4859384;29;20208;-86
2022/10/24 11:47:23;;;;;;;3.30;1.80;;;15.90;99.90;;;;;;4868267;29;20185;-87
2022/10/24 11:50:14;;;;;;;4.13;1.40;;;16.00;99.90;;;;;;4878505;29;20199;-86
2022/10/24 11:53:09;;;;;;;4.00;2.40;;;16.00;99.90;;;;;;4878377;29;20208;-86
2022/10/24 11:55:40;;;;;;;2.27;1.27;;;16.00;99.90;;;;;;4840922;29;20248;-85
2022/10/24 11:58:14;;;;;;;3.50;1.10;;;16.00;99.90;;;;;;4859087;29;20188;-86
2022/10/24 12:00:53;;;;;;;2.87;1.10;;;16.10;99.90;;;;;;4860011;29;20187;-86
2022/10/24 12:04:00;;;;;;;1.80;1.00;;;16.10;99.90;;;;;;4859574;29;20208;-86
2022/10/24 12:07:00;;;;;;;2.07;1.20;;;16.10;99.90;;;;;;4859185;29;20192;-86
2022/10/24 12:14:02;;;;;;;1.77;1.20;;;16.20;99.90;;;;;;4842691;29;20223;-86
2022/10/24 12:16:50;;;;;;;3.63;1.20;;;16.10;99.90;;;;;;4844292;29;20220;-86
2022/10/24 12:19:20;;;;;;;7.43;1.30;;;16.20;99.90;;;;;;4843694;29;20184;-87
2022/10/24 12:21:53;;;;;;;2.17;1.17;;;16.20;99.90;;;;;;4859491;29;20574;-86
2022/10/24 12:24:33;;;;;;;3.40;1.40;;;16.20;99.90;;;;;;4859673;29;20203;-86
2022/10/24 12:27:02;;;;;;;1.90;1.23;;;16.20;99.90;;;;;;4858851;29;20208;-86
2022/10/24 12:29:32;;;;;;;3.80;1.20;;;16.30;99.90;;;;;;4859267;29;20193;-86
2022/10/24 12:32:19;;;;;;;1.73;0.83;;;16.30;99.90;;;;;;4859194;29;20188;-86
2022/10/24 12:35:00;;;;;;;2.87;1.50;;;16.30;99.90;;;;;;4858729;29;20220;-86
2022/10/24 12:37:30;;;;;;;2.27;1.13;;;16.30;99.90;;;;;;4858841;29;20173;-86
2022/10/24 12:39:56;;;;;;;2.97;1.80;;;16.30;99.90;;;;;;4858878;29;20181;-86
2022/10/24 12:42:22;;;;;;;3.43;2.10;;;16.30;99.90;;;;;;4858690;29;20284;-86
2022/10/24 12:45:11;;;;;;;3.87;1.60;;;16.30;99.90;;;;;;4860197;29;20217;-86
2022/10/24 12:48:03;;;;;;;4.30;1.20;;;16.40;99.90;;;;;;4874199;29;20188;-86
2022/10/24 12:50:28;;;;;;;1.90;0.90;;;16.40;99.90;;;;;;4859399;29;20177;-85
2022/10/24 12:53:18;;;;;;;3.83;0.90;;;16.40;99.90;;;;;;4863080;29;20681;-86
2022/10/24 12:56:04;;;;;;;3.23;1.20;;;16.40;99.90;;;;;;4863019;29;20177;-86
2022/10/24 12:58:30;;;;;;;3.03;1.50;;;16.50;99.90;;;;;;4860827;29;20220;-86
2022/10/24 13:00:59;;;;;;;2.73;1.20;;;16.50;99.90;;;;;;4862716;29;20212;-87
2022/10/24 13:04:06;;;;;;;2.97;1.20;;;16.50;99.90;;;;;;4877655;29;20213;-86
2022/10/24 13:07:02;;;;;;;1.80;1.23;;;16.60;99.90;;;;;;4812384;29;20272;-86
2022/10/24 13:09:48;;;;;;;1.77;0.97;;;16.70;99.90;;;;;;4812631;29;20170;-86
2022/10/24 13:13:00;;;;;;;3.33;1.33;;;16.70;99.90;;;;;;4840831;29;20212;-86
2022/10/24 13:15:39;;;;;;;4.37;1.13;;;16.70;99.90;;;;;;4879202;29;20204;-86